sensor_id;sensor_type;location;lat;lon;timestamp;pressure;altitude;pressure_sealevel;temperature;humidity
81997;BME280;71500;50.806;8.774;2024-01-15T00:00:35;98325.48;;;-0.17;77.72
81997;BME280;71500;50.806;8.774;2024-01-15T00:03:27;98328.50;;;-0.15;77.75
81997;BME280;71500;50.806;8.774;2024-01-15T00:05:58;98323.66;;;-0.16;77.84
81997;BME280;71500;50.806;8.774;2024-01-15T00:08:30;98323.77;;;-0.15;77.89
81997;BME280;71500;50.806;8.774;2024-01-15T00:11:02;98310.05;;;-0.13;77.81
81997;BME280;71500;50.806;8.774;2024-01-15T00:13:34;98307.63;;;-0.13;77.80
81997;BME280;71500;50.806;8.774;2024-01-15T00:16:06;98300.81;;;-0.15;77.75
81997;BME280;71500;50.806;8.774;2024-01-15T00:18:38;98302.89;;;-0.18;77.78
81997;BME280;71500;50.806;8.774;2024-01-15T00:21:09;98293.59;;;-0.19;77.90
81997;BME280;71500;50.806;8.774;2024-01-15T00:23:43;98288.13;;;-0.21;77.77
81997;BME280;71500;50.806;8.774;2024-01-15T00:26:15;98287.50;;;-0.20;77.62
81997;BME280;71500;50.806;8.774;2024-01-15T00:28:46;98279.67;;;-0.20;77.60
81997;BME280;71500;50.806;8.774;2024-01-15T00:31:18;98281.13;;;-0.18;77.66
81997;BME280;71500;50.806;8.774;2024-01-15T00:33:50;98279.94;;;-0.16;77.73
81997;BME280;71500;50.806;8.774;2024-01-15T00:36:21;98279.65;;;-0.15;77.91
81997;BME280;71500;50.806;8.774;2024-01-15T00:38:53;98284.27;;;-0.13;77.70
81997;BME280;71500;50.806;8.774;2024-01-15T00:41:25;98271.74;;;-0.14;77.67
81997;BME280;71500;50.806;8.774;2024-01-15T00:43:57;98272.48;;;-0.15;77.55
81997;BME280;71500;50.806;8.774;2024-01-15T00:46:29;98265.76;;;-0.18;77.50
81997;BME280;71500;50.806;8.774;2024-01-15T00:49:00;98267.35;;;-0.21;77.71
81997;BME280;71500;50.806;8.774;2024-01-15T00:51:32;98261.15;;;-0.24;77.70
81997;BME280;71500;50.806;8.774;2024-01-15T00:54:03;98264.50;;;-0.28;77.68
81997;BME280;71500;50.806;8.774;2024-01-15T00:56:34;98267.20;;;-0.24;77.48
81997;BME280;71500;50.806;8.774;2024-01-15T00:59:06;98266.39;;;-0.22;77.42
81997;BME280;71500;50.806;8.774;2024-01-15T01:01:37;98262.01;;;-0.22;77.33
81997;BME280;71500;50.806;8.774;2024-01-15T01:04:13;98257.19;;;-0.23;77.50
81997;BME280;71500;50.806;8.774;2024-01-15T01:06:44;98252.31;;;-0.23;77.64
81997;BME280;71500;50.806;8.774;2024-01-15T01:09:16;98247.23;;;-0.23;77.55
81997;BME280;71500;50.806;8.774;2024-01-15T01:11:47;98247.00;;;-0.24;77.44
81997;BME280;71500;50.806;8.774;2024-01-15T01:14:19;98245.34;;;-0.28;77.33
81997;BME280;71500;50.806;8.774;2024-01-15T01:16:50;98242.73;;;-0.30;77.46
81997;BME280;71500;50.806;8.774;2024-01-15T01:19:22;98242.71;;;-0.33;77.50
81997;BME280;71500;50.806;8.774;2024-01-15T01:21:53;98243.26;;;-0.33;77.49
81997;BME280;71500;50.806;8.774;2024-01-15T01:24:25;98244.61;;;-0.30;77.52
81997;BME280;71500;50.806;8.774;2024-01-15T01:26:56;98246.60;;;-0.29;77.69
81997;BME280;71500;50.806;8.774;2024-01-15T01:29:27;98250.38;;;-0.28;77.98
81997;BME280;71500;50.806;8.774;2024-01-15T01:31:59;98252.30;;;-0.25;78.19
81997;BME280;71500;50.806;8.774;2024-01-15T01:34:32;98250.94;;;-0.21;78.22
81997;BME280;71500;50.806;8.774;2024-01-15T01:37:04;98253.39;;;-0.18;78.22
81997;BME280;71500;50.806;8.774;2024-01-15T01:39:35;98257.27;;;-0.16;78.30
81997;BME280;71500;50.806;8.774;2024-01-15T01:42:07;98258.67;;;-0.14;78.24
81997;BME280;71500;50.806;8.774;2024-01-15T01:44:39;98255.36;;;-0.14;78.20
81997;BME280;71500;50.806;8.774;2024-01-15T01:47:10;98256.79;;;-0.15;78.15
81997;BME280;71500;50.806;8.774;2024-01-15T01:49:42;98254.52;;;-0.17;78.07
81997;BME280;71500;50.806;8.774;2024-01-15T01:52:14;98257.52;;;-0.20;78.11
81997;BME280;71500;50.806;8.774;2024-01-15T01:54:46;98252.91;;;-0.24;78.13
81997;BME280;71500;50.806;8.774;2024-01-15T01:57:18;98251.10;;;-0.23;78.13
81997;BME280;71500;50.806;8.774;2024-01-15T01:59:51;98252.13;;;-0.23;78.17
81997;BME280;71500;50.806;8.774;2024-01-15T02:02:24;98252.21;;;-0.24;78.31
81997;BME280;71500;50.806;8.774;2024-01-15T02:04:57;98254.55;;;-0.25;78.40
81997;BME280;71500;50.806;8.774;2024-01-15T02:07:29;98252.70;;;-0.26;78.45
81997;BME280;71500;50.806;8.774;2024-01-15T02:10:00;98254.08;;;-0.26;78.69
81997;BME280;71500;50.806;8.774;2024-01-15T02:12:31;98254.44;;;-0.26;78.72
81997;BME280;71500;50.806;8.774;2024-01-15T02:15:04;98256.73;;;-0.26;78.79
81997;BME280;71500;50.806;8.774;2024-01-15T02:17:36;98258.95;;;-0.26;79.07
81997;BME280;71500;50.806;8.774;2024-01-15T02:20:27;98257.28;;;-0.27;78.88
81997;BME280;71500;50.806;8.774;2024-01-15T02:23:07;98256.67;;;-0.28;78.73
81997;BME280;71500;50.806;8.774;2024-01-15T02:25:41;98250.58;;;-0.26;78.80
81997;BME280;71500;50.806;8.774;2024-01-15T02:28:14;98245.03;;;-0.24;78.96
81997;BME280;71500;50.806;8.774;2024-01-15T02:30:46;98244.55;;;-0.22;78.99
81997;BME280;71500;50.806;8.774;2024-01-15T02:33:18;98243.48;;;-0.19;79.06
81997;BME280;71500;50.806;8.774;2024-01-15T02:35:49;98242.58;;;-0.18;79.13
81997;BME280;71500;50.806;8.774;2024-01-15T02:38:21;98254.73;;;-0.15;79.26
81997;BME280;71500;50.806;8.774;2024-01-15T02:40:52;98252.20;;;-0.14;79.22
81997;BME280;71500;50.806;8.774;2024-01-15T02:43:23;98254.09;;;-0.13;79.22
81997;BME280;71500;50.806;8.774;2024-01-15T02:45:55;98251.70;;;-0.12;79.03
81997;BME280;71500;50.806;8.774;2024-01-15T02:48:26;98250.42;;;-0.11;78.98
81997;BME280;71500;50.806;8.774;2024-01-15T02:50:58;98256.90;;;-0.11;78.82
81997;BME280;71500;50.806;8.774;2024-01-15T02:53:29;98255.56;;;-0.12;78.79
81997;BME280;71500;50.806;8.774;2024-01-15T02:56:01;98251.73;;;-0.15;78.78
81997;BME280;71500;50.806;8.774;2024-01-15T02:58:32;98254.66;;;-0.17;78.71
81997;BME280;71500;50.806;8.774;2024-01-15T03:01:04;98252.70;;;-0.18;78.83
81997;BME280;71500;50.806;8.774;2024-01-15T03:03:35;98256.77;;;-0.20;78.93
81997;BME280;71500;50.806;8.774;2024-01-15T03:06:07;98253.98;;;-0.17;78.64
81997;BME280;71500;50.806;8.774;2024-01-15T03:08:39;98258.04;;;-0.13;78.75
81997;BME280;71500;50.806;8.774;2024-01-15T03:11:10;98262.35;;;-0.09;78.53
81997;BME280;71500;50.806;8.774;2024-01-15T03:13:41;98265.91;;;-0.05;78.45
81997;BME280;71500;50.806;8.774;2024-01-15T03:16:13;98266.59;;;-0.00;78.42
81997;BME280;71500;50.806;8.774;2024-01-15T03:18:44;98268.95;;;0.06;78.36
81997;BME280;71500;50.806;8.774;2024-01-15T03:21:16;98265.44;;;0.11;78.26
81997;BME280;71500;50.806;8.774;2024-01-15T03:23:47;98265.95;;;0.14;78.28
81997;BME280;71500;50.806;8.774;2024-01-15T03:26:19;98263.48;;;0.17;78.23
81997;BME280;71500;50.806;8.774;2024-01-15T03:28:50;98261.38;;;0.19;78.20
81997;BME280;71500;50.806;8.774;2024-01-15T03:31:21;98269.33;;;0.20;78.10
81997;BME280;71500;50.806;8.774;2024-01-15T03:33:53;98261.70;;;0.20;78.00
81997;BME280;71500;50.806;8.774;2024-01-15T03:36:25;98266.47;;;0.19;78.02
81997;BME280;71500;50.806;8.774;2024-01-15T03:38:56;98272.48;;;0.18;78.09
81997;BME280;71500;50.806;8.774;2024-01-15T03:41:27;98269.30;;;0.16;77.99
81997;BME280;71500;50.806;8.774;2024-01-15T03:43:59;98270.52;;;0.13;78.25
81997;BME280;71500;50.806;8.774;2024-01-15T03:46:30;98266.29;;;0.11;78.22
81997;BME280;71500;50.806;8.774;2024-01-15T03:49:02;98262.26;;;0.09;78.16
81997;BME280;71500;50.806;8.774;2024-01-15T03:51:34;98253.09;;;0.08;78.08
81997;BME280;71500;50.806;8.774;2024-01-15T03:54:06;98251.12;;;0.11;78.01
81997;BME280;71500;50.806;8.774;2024-01-15T03:56:37;98254.67;;;0.13;77.90
81997;BME280;71500;50.806;8.774;2024-01-15T03:59:08;98253.81;;;0.15;78.01
81997;BME280;71500;50.806;8.774;2024-01-15T04:01:40;98252.02;;;0.18;78.11
81997;BME280;71500;50.806;8.774;2024-01-15T04:04:11;98252.16;;;0.24;78.18
81997;BME280;71500;50.806;8.774;2024-01-15T04:06:46;98251.00;;;0.30;78.18
81997;BME280;71500;50.806;8.774;2024-01-15T04:09:18;98251.34;;;0.35;78.10
81997;BME280;71500;50.806;8.774;2024-01-15T04:11:50;98250.41;;;0.38;77.89
81997;BME280;71500;50.806;8.774;2024-01-15T04:14:21;98251.46;;;0.40;77.84
81997;BME280;71500;50.806;8.774;2024-01-15T04:16:52;98248.01;;;0.42;77.75
81997;BME280;71500;50.806;8.774;2024-01-15T04:19:24;98245.14;;;0.43;77.70
81997;BME280;71500;50.806;8.774;2024-01-15T04:21:55;98240.48;;;0.43;77.67
81997;BME280;71500;50.806;8.774;2024-01-15T04:24:26;98241.11;;;0.41;77.53
81997;BME280;71500;50.806;8.774;2024-01-15T04:26:58;98243.91;;;0.39;77.53
81997;BME280;71500;50.806;8.774;2024-01-15T04:29:29;98241.54;;;0.35;77.71
81997;BME280;71500;50.806;8.774;2024-01-15T04:32:01;98240.28;;;0.31;77.99
81997;BME280;71500;50.806;8.774;2024-01-15T04:34:32;98236.80;;;0.28;78.09
81997;BME280;71500;50.806;8.774;2024-01-15T04:37:04;98234.40;;;0.25;78.09
81997;BME280;71500;50.806;8.774;2024-01-15T04:39:35;98229.90;;;0.23;78.11
81997;BME280;71500;50.806;8.774;2024-01-15T04:42:08;98227.96;;;0.27;78.20
81997;BME280;71500;50.806;8.774;2024-01-15T04:44:39;98228.88;;;0.30;78.12
81997;BME280;71500;50.806;8.774;2024-01-15T04:47:11;98222.59;;;0.32;78.12
81997;BME280;71500;50.806;8.774;2024-01-15T04:49:42;98226.34;;;0.35;77.97
81997;BME280;71500;50.806;8.774;2024-01-15T04:52:14;98218.67;;;0.37;77.96
81997;BME280;71500;50.806;8.774;2024-01-15T04:54:45;98216.50;;;0.41;77.97
81997;BME280;71500;50.806;8.774;2024-01-15T04:57:16;98221.30;;;0.42;77.90
81997;BME280;71500;50.806;8.774;2024-01-15T04:59:48;98219.82;;;0.43;77.82
81997;BME280;71500;50.806;8.774;2024-01-15T05:02:19;98215.40;;;0.44;77.90
81997;BME280;71500;50.806;8.774;2024-01-15T05:04:50;98211.75;;;0.44;77.81
81997;BME280;71500;50.806;8.774;2024-01-15T05:07:22;98212.46;;;0.44;77.90
81997;BME280;71500;50.806;8.774;2024-01-15T05:09:53;98211.50;;;0.43;77.76
81997;BME280;71500;50.806;8.774;2024-01-15T05:12:25;98208.39;;;0.40;77.70
81997;BME280;71500;50.806;8.774;2024-01-15T05:14:56;98208.98;;;0.36;77.60
81997;BME280;71500;50.806;8.774;2024-01-15T05:17:28;98204.42;;;0.32;77.67
81997;BME280;71500;50.806;8.774;2024-01-15T05:19:59;98196.38;;;0.27;77.71
81997;BME280;71500;50.806;8.774;2024-01-15T05:22:31;98190.52;;;0.24;77.76
81997;BME280;71500;50.806;8.774;2024-01-15T05:25:03;98184.17;;;0.22;77.77
81997;BME280;71500;50.806;8.774;2024-01-15T05:27:34;98172.29;;;0.25;77.64
81997;BME280;71500;50.806;8.774;2024-01-15T05:30:07;98176.07;;;0.26;77.75
81997;BME280;71500;50.806;8.774;2024-01-15T05:32:37;98173.77;;;0.26;77.66
81997;BME280;71500;50.806;8.774;2024-01-15T05:35:09;98165.94;;;0.26;77.68
81997;BME280;71500;50.806;8.774;2024-01-15T05:37:43;98172.12;;;0.25;77.70
81997;BME280;71500;50.806;8.774;2024-01-15T05:40:15;98183.52;;;0.24;77.73
81997;BME280;71500;50.806;8.774;2024-01-15T05:42:46;98187.05;;;0.24;77.73
81997;BME280;71500;50.806;8.774;2024-01-15T05:45:18;98191.36;;;0.22;77.68
81997;BME280;71500;50.806;8.774;2024-01-15T05:47:49;98190.95;;;0.20;77.87
81997;BME280;71500;50.806;8.774;2024-01-15T05:50:21;98194.16;;;0.20;77.84
81997;BME280;71500;50.806;8.774;2024-01-15T05:52:53;98189.02;;;0.18;77.89
81997;BME280;71500;50.806;8.774;2024-01-15T05:55:24;98187.55;;;0.17;77.86
81997;BME280;71500;50.806;8.774;2024-01-15T05:57:56;98184.02;;;0.17;77.80
81997;BME280;71500;50.806;8.774;2024-01-15T06:00:27;98187.61;;;0.18;77.71
81997;BME280;71500;50.806;8.774;2024-01-15T06:02:59;98194.89;;;0.19;77.61
81997;BME280;71500;50.806;8.774;2024-01-15T06:05:31;98193.34;;;0.19;77.62
81997;BME280;71500;50.806;8.774;2024-01-15T06:08:02;98197.55;;;0.18;77.62
81997;BME280;71500;50.806;8.774;2024-01-15T06:10:34;98197.19;;;0.19;77.67
81997;BME280;71500;50.806;8.774;2024-01-15T06:13:06;98185.77;;;0.17;77.69
81997;BME280;71500;50.806;8.774;2024-01-15T06:15:37;98184.61;;;0.16;77.75
81997;BME280;71500;50.806;8.774;2024-01-15T06:18:09;98187.55;;;0.14;77.74
81997;BME280;71500;50.806;8.774;2024-01-15T06:20:40;98175.60;;;0.13;77.75
81997;BME280;71500;50.806;8.774;2024-01-15T06:23:13;98178.70;;;0.11;77.95
81997;BME280;71500;50.806;8.774;2024-01-15T06:25:48;98182.31;;;0.10;78.26
81997;BME280;71500;50.806;8.774;2024-01-15T06:28:19;98183.54;;;0.10;78.07
81997;BME280;71500;50.806;8.774;2024-01-15T06:30:51;98179.32;;;0.10;77.81
81997;BME280;71500;50.806;8.774;2024-01-15T06:33:23;98187.65;;;0.13;77.81
81997;BME280;71500;50.806;8.774;2024-01-15T06:35:54;98189.84;;;0.14;77.75
81997;BME280;71500;50.806;8.774;2024-01-15T06:38:26;98186.69;;;0.17;77.81
81997;BME280;71500;50.806;8.774;2024-01-15T06:40:58;98184.14;;;0.20;77.69
81997;BME280;71500;50.806;8.774;2024-01-15T06:43:29;98181.68;;;0.23;77.65
81997;BME280;71500;50.806;8.774;2024-01-15T06:46:01;98180.52;;;0.25;77.64
81997;BME280;71500;50.806;8.774;2024-01-15T06:48:36;98182.65;;;0.26;77.54
81997;BME280;71500;50.806;8.774;2024-01-15T06:51:08;98175.50;;;0.26;77.38
81997;BME280;71500;50.806;8.774;2024-01-15T06:53:39;98176.60;;;0.26;77.34
81997;BME280;71500;50.806;8.774;2024-01-15T06:56:11;98174.33;;;0.23;77.42
81997;BME280;71500;50.806;8.774;2024-01-15T06:58:42;98166.77;;;0.22;77.43
81997;BME280;71500;50.806;8.774;2024-01-15T07:01:13;98170.19;;;0.20;77.30
81997;BME280;71500;50.806;8.774;2024-01-15T07:03:46;98165.54;;;0.17;77.34
81997;BME280;71500;50.806;8.774;2024-01-15T07:06:17;98166.17;;;0.16;77.27
81997;BME280;71500;50.806;8.774;2024-01-15T07:08:50;98164.58;;;0.18;77.20
81997;BME280;71500;50.806;8.774;2024-01-15T07:11:21;98159.22;;;0.20;77.26
81997;BME280;71500;50.806;8.774;2024-01-15T07:13:53;98165.45;;;0.23;77.14
81997;BME280;71500;50.806;8.774;2024-01-15T07:16:24;98167.29;;;0.24;77.05
81997;BME280;71500;50.806;8.774;2024-01-15T07:19:07;98172.05;;;0.26;77.10
81997;BME280;71500;50.806;8.774;2024-01-15T07:21:38;98181.35;;;0.27;77.04
81997;BME280;71500;50.806;8.774;2024-01-15T07:24:13;98183.66;;;0.27;76.97
81997;BME280;71500;50.806;8.774;2024-01-15T07:26:44;98178.58;;;0.25;76.94
81997;BME280;71500;50.806;8.774;2024-01-15T07:29:16;98169.27;;;0.23;76.95
81997;BME280;71500;50.806;8.774;2024-01-15T07:31:51;98180.63;;;0.23;77.03
81997;BME280;71500;50.806;8.774;2024-01-15T07:34:22;98177.70;;;0.23;77.10
81997;BME280;71500;50.806;8.774;2024-01-15T07:36:54;98180.48;;;0.23;77.10
81997;BME280;71500;50.806;8.774;2024-01-15T07:39:26;98182.02;;;0.21;76.92
81997;BME280;71500;50.806;8.774;2024-01-15T07:41:59;98182.95;;;0.25;77.02
81997;BME280;71500;50.806;8.774;2024-01-15T07:44:30;98182.89;;;0.28;76.91
81997;BME280;71500;50.806;8.774;2024-01-15T07:47:02;98178.23;;;0.30;76.76
81997;BME280;71500;50.806;8.774;2024-01-15T07:49:33;98177.91;;;0.29;76.69
81997;BME280;71500;50.806;8.774;2024-01-15T07:52:06;98176.58;;;0.28;76.71
81997;BME280;71500;50.806;8.774;2024-01-15T07:54:37;98172.88;;;0.29;76.83
81997;BME280;71500;50.806;8.774;2024-01-15T07:57:08;98172.89;;;0.28;76.99
81997;BME280;71500;50.806;8.774;2024-01-15T07:59:40;98172.98;;;0.30;77.13
81997;BME280;71500;50.806;8.774;2024-01-15T08:02:12;98170.17;;;0.30;77.00
81997;BME280;71500;50.806;8.774;2024-01-15T08:04:43;98167.59;;;0.29;76.80
81997;BME280;71500;50.806;8.774;2024-01-15T08:07:16;98163.60;;;0.27;77.03
81997;BME280;71500;50.806;8.774;2024-01-15T08:09:48;98160.61;;;0.25;76.95
81997;BME280;71500;50.806;8.774;2024-01-15T08:12:19;98157.81;;;0.23;76.98
81997;BME280;71500;50.806;8.774;2024-01-15T08:14:52;98158.04;;;0.22;76.95
81997;BME280;71500;50.806;8.774;2024-01-15T08:17:24;98159.02;;;0.25;76.86
81997;BME280;71500;50.806;8.774;2024-01-15T08:19:59;98159.88;;;0.28;76.69
81997;BME280;71500;50.806;8.774;2024-01-15T08:22:33;98158.02;;;0.27;76.91
81997;BME280;71500;50.806;8.774;2024-01-15T08:25:06;98158.92;;;0.29;76.89
81997;BME280;71500;50.806;8.774;2024-01-15T08:27:38;98157.40;;;0.28;76.89
81997;BME280;71500;50.806;8.774;2024-01-15T08:30:12;98156.06;;;0.30;76.93
81997;BME280;71500;50.806;8.774;2024-01-15T08:32:43;98154.72;;;0.29;76.84
81997;BME280;71500;50.806;8.774;2024-01-15T08:35:15;98152.14;;;0.28;76.93
81997;BME280;71500;50.806;8.774;2024-01-15T08:37:47;98155.49;;;0.28;76.96
81997;BME280;71500;50.806;8.774;2024-01-15T08:40:18;98154.14;;;0.27;77.02
81997;BME280;71500;50.806;8.774;2024-01-15T08:42:50;98153.33;;;0.26;77.16
81997;BME280;71500;50.806;8.774;2024-01-15T08:45:21;98153.04;;;0.26;77.23
81997;BME280;71500;50.806;8.774;2024-01-15T08:47:53;98160.44;;;0.29;77.18
81997;BME280;71500;50.806;8.774;2024-01-15T08:50:25;98162.33;;;0.32;77.21
81997;BME280;71500;50.806;8.774;2024-01-15T08:52:56;98156.98;;;0.34;77.24
81997;BME280;71500;50.806;8.774;2024-01-15T08:55:28;98155.58;;;0.36;77.38
81997;BME280;71500;50.806;8.774;2024-01-15T08:57:59;98152.31;;;0.38;77.47
81997;BME280;71500;50.806;8.774;2024-01-15T09:00:30;98158.23;;;0.40;77.57
81997;BME280;71500;50.806;8.774;2024-01-15T09:03:04;98163.44;;;0.41;77.39
81997;BME280;71500;50.806;8.774;2024-01-15T09:05:36;98159.91;;;0.39;77.57
81997;BME280;71500;50.806;8.774;2024-01-15T09:08:07;98163.93;;;0.39;77.70
81997;BME280;71500;50.806;8.774;2024-01-15T09:10:38;98163.23;;;0.36;77.58
81997;BME280;71500;50.806;8.774;2024-01-15T09:13:11;98167.98;;;0.38;77.50
81997;BME280;71500;50.806;8.774;2024-01-15T09:15:43;98160.56;;;0.42;77.44
81997;BME280;71500;50.806;8.774;2024-01-15T09:18:14;98164.48;;;0.46;77.60
81997;BME280;71500;50.806;8.774;2024-01-15T09:20:46;98162.95;;;0.49;77.48
81997;BME280;71500;50.806;8.774;2024-01-15T09:23:17;98160.62;;;0.53;77.45
81997;BME280;71500;50.806;8.774;2024-01-15T09:25:49;98165.63;;;0.56;77.38
81997;BME280;71500;50.806;8.774;2024-01-15T09:28:23;98164.16;;;0.57;77.24
81997;BME280;71500;50.806;8.774;2024-01-15T09:30:54;98162.87;;;0.58;77.40
81997;BME280;71500;50.806;8.774;2024-01-15T09:33:26;98166.35;;;0.58;77.41
81997;BME280;71500;50.806;8.774;2024-01-15T09:36:00;98165.46;;;0.58;77.60
81997;BME280;71500;50.806;8.774;2024-01-15T09:38:32;98171.48;;;0.57;77.69
81997;BME280;71500;50.806;8.774;2024-01-15T09:41:03;98166.67;;;0.56;77.73
81997;BME280;71500;50.806;8.774;2024-01-15T09:43:36;98166.94;;;0.57;77.87
81997;BME280;71500;50.806;8.774;2024-01-15T09:46:08;98162.52;;;0.58;77.83
81997;BME280;71500;50.806;8.774;2024-01-15T09:48:41;98161.54;;;0.64;77.87
81997;BME280;71500;50.806;8.774;2024-01-15T09:51:13;98157.39;;;0.70;77.88
81997;BME280;71500;50.806;8.774;2024-01-15T09:53:46;98157.26;;;0.77;77.88
81997;BME280;71500;50.806;8.774;2024-01-15T09:56:18;98157.55;;;0.82;77.75
81997;BME280;71500;50.806;8.774;2024-01-15T09:58:50;98154.98;;;0.86;77.71
81997;BME280;71500;50.806;8.774;2024-01-15T10:01:23;98153.54;;;0.89;77.58
81997;BME280;71500;50.806;8.774;2024-01-15T10:03:55;98154.50;;;0.89;77.61
81997;BME280;71500;50.806;8.774;2024-01-15T10:06:28;98158.83;;;0.90;77.72
81997;BME280;71500;50.806;8.774;2024-01-15T10:09:00;98148.84;;;0.88;77.91
81997;BME280;71500;50.806;8.774;2024-01-15T10:11:31;98146.02;;;0.89;77.97
81997;BME280;71500;50.806;8.774;2024-01-15T10:14:04;98144.10;;;0.89;77.83
81997;BME280;71500;50.806;8.774;2024-01-15T10:16:35;98138.47;;;0.91;77.94
81997;BME280;71500;50.806;8.774;2024-01-15T10:19:09;98134.34;;;0.93;78.00
81997;BME280;71500;50.806;8.774;2024-01-15T10:21:39;98129.34;;;0.96;78.15
81997;BME280;71500;50.806;8.774;2024-01-15T10:24:11;98130.63;;;0.98;78.04
81997;BME280;71500;50.806;8.774;2024-01-15T10:26:43;98120.61;;;0.99;78.11
81997;BME280;71500;50.806;8.774;2024-01-15T10:29:16;98114.61;;;1.02;78.22
81997;BME280;71500;50.806;8.774;2024-01-15T10:31:47;98112.36;;;1.04;78.43
81997;BME280;71500;50.806;8.774;2024-01-15T10:34:20;98108.20;;;1.05;78.23
81997;BME280;71500;50.806;8.774;2024-01-15T10:36:52;98103.92;;;1.04;78.20
81997;BME280;71500;50.806;8.774;2024-01-15T10:39:26;98101.05;;;1.05;78.16
81997;BME280;71500;50.806;8.774;2024-01-15T10:41:57;98097.30;;;1.09;78.24
81997;BME280;71500;50.806;8.774;2024-01-15T10:44:29;98093.84;;;1.11;78.05
81997;BME280;71500;50.806;8.774;2024-01-15T10:47:00;98092.41;;;1.11;78.07
81997;BME280;71500;50.806;8.774;2024-01-15T10:49:32;98092.86;;;1.12;78.14
81997;BME280;71500;50.806;8.774;2024-01-15T10:52:05;98088.55;;;1.13;78.30
81997;BME280;71500;50.806;8.774;2024-01-15T10:54:38;98079.63;;;1.14;78.29
81997;BME280;71500;50.806;8.774;2024-01-15T10:57:10;98078.16;;;1.15;78.37
81997;BME280;71500;50.806;8.774;2024-01-15T10:59:43;98078.95;;;1.13;78.52
81997;BME280;71500;50.806;8.774;2024-01-15T11:02:15;98076.80;;;1.12;78.53
81997;BME280;71500;50.806;8.774;2024-01-15T11:04:46;98073.38;;;1.09;78.62
81997;BME280;71500;50.806;8.774;2024-01-15T11:07:18;98071.29;;;1.06;78.56
81997;BME280;71500;50.806;8.774;2024-01-15T11:09:57;98067.26;;;1.09;78.61
81997;BME280;71500;50.806;8.774;2024-01-15T11:12:29;98064.33;;;1.11;78.73
81997;BME280;71500;50.806;8.774;2024-01-15T11:15:05;98058.02;;;1.13;78.68
81997;BME280;71500;50.806;8.774;2024-01-15T11:20:23;98062.87;;;1.20;78.58
81997;BME280;71500;50.806;8.774;2024-01-15T11:22:54;98054.21;;;1.24;78.58
81997;BME280;71500;50.806;8.774;2024-01-15T11:25:26;98056.73;;;1.29;78.71
81997;BME280;71500;50.806;8.774;2024-01-15T11:28:05;98058.27;;;1.36;78.80
81997;BME280;71500;50.806;8.774;2024-01-15T11:30:36;98059.16;;;1.40;78.66
81997;BME280;71500;50.806;8.774;2024-01-15T11:33:37;98063.81;;;1.43;78.65
81997;BME280;71500;50.806;8.774;2024-01-15T11:36:19;98065.14;;;1.48;78.91
81997;BME280;71500;50.806;8.774;2024-01-15T11:38:50;98068.61;;;1.51;78.77
81997;BME280;71500;50.806;8.774;2024-01-15T11:41:22;98069.98;;;1.54;78.70
81997;BME280;71500;50.806;8.774;2024-01-15T11:43:58;98071.71;;;1.58;78.63
81997;BME280;71500;50.806;8.774;2024-01-15T11:46:31;98071.67;;;1.63;78.61
81997;BME280;71500;50.806;8.774;2024-01-15T11:49:10;98070.02;;;1.66;78.85
81997;BME280;71500;50.806;8.774;2024-01-15T11:51:47;98068.23;;;1.71;79.05
81997;BME280;71500;50.806;8.774;2024-01-15T11:54:20;98076.11;;;1.77;78.90
81997;BME280;71500;50.806;8.774;2024-01-15T11:56:54;98078.97;;;1.83;78.79
81997;BME280;71500;50.806;8.774;2024-01-15T11:59:27;98075.89;;;1.86;78.75
81997;BME280;71500;50.806;8.774;2024-01-15T12:01:59;98077.55;;;1.90;78.86
81997;BME280;71500;50.806;8.774;2024-01-15T12:04:30;98078.16;;;1.93;78.66
81997;BME280;71500;50.806;8.774;2024-01-15T12:07:02;98077.36;;;1.92;78.65
81997;BME280;71500;50.806;8.774;2024-01-15T12:09:34;98080.88;;;1.92;78.89
81997;BME280;71500;50.806;8.774;2024-01-15T12:12:09;98082.45;;;1.90;78.52
81997;BME280;71500;50.806;8.774;2024-01-15T12:14:44;98083.90;;;1.87;78.70
81997;BME280;71500;50.806;8.774;2024-01-15T12:17:17;98084.78;;;1.87;78.88
81997;BME280;71500;50.806;8.774;2024-01-15T12:19:48;98082.26;;;1.85;78.98
81997;BME280;71500;50.806;8.774;2024-01-15T12:22:20;98080.39;;;1.85;79.01
81997;BME280;71500;50.806;8.774;2024-01-15T12:24:51;98079.83;;;1.83;79.27
81997;BME280;71500;50.806;8.774;2024-01-15T12:27:23;98077.73;;;1.81;79.18
81997;BME280;71500;50.806;8.774;2024-01-15T12:29:55;98079.02;;;1.78;79.14
81997;BME280;71500;50.806;8.774;2024-01-15T12:32:26;98079.61;;;1.75;79.10
81997;BME280;71500;50.806;8.774;2024-01-15T12:34:58;98086.09;;;1.75;79.13
81997;BME280;71500;50.806;8.774;2024-01-15T12:37:32;98086.71;;;1.76;79.37
81997;BME280;71500;50.806;8.774;2024-01-15T12:40:04;98090.55;;;1.78;79.47
81997;BME280;71500;50.806;8.774;2024-01-15T12:42:36;98087.77;;;1.84;79.60
81997;BME280;71500;50.806;8.774;2024-01-15T12:45:11;98080.98;;;1.93;79.87
81997;BME280;71500;50.806;8.774;2024-01-15T12:47:43;98080.40;;;2.04;79.82
81997;BME280;71500;50.806;8.774;2024-01-15T12:50:15;98087.13;;;2.16;79.57
81997;BME280;71500;50.806;8.774;2024-01-15T12:52:50;98090.62;;;2.25;79.15
81997;BME280;71500;50.806;8.774;2024-01-15T12:55:21;98095.65;;;2.31;78.81
81997;BME280;71500;50.806;8.774;2024-01-15T12:57:53;98093.13;;;2.39;79.10
81997;BME280;71500;50.806;8.774;2024-01-15T13:00:25;98091.56;;;2.47;79.12
81997;BME280;71500;50.806;8.774;2024-01-15T13:02:58;98093.57;;;2.56;78.81
81997;BME280;71500;50.806;8.774;2024-01-15T13:05:32;98094.58;;;2.65;78.55
81997;BME280;71500;50.806;8.774;2024-01-15T13:08:06;98099.83;;;2.69;78.12
81997;BME280;71500;50.806;8.774;2024-01-15T13:10:37;98103.33;;;2.74;77.87
81997;BME280;71500;50.806;8.774;2024-01-15T13:13:08;98106.98;;;2.76;77.35
81997;BME280;71500;50.806;8.774;2024-01-15T13:15:39;98102.65;;;2.77;76.64
81997;BME280;71500;50.806;8.774;2024-01-15T13:18:12;98101.86;;;2.74;76.05
81997;BME280;71500;50.806;8.774;2024-01-15T13:20:43;98103.17;;;2.71;75.47
81997;BME280;71500;50.806;8.774;2024-01-15T13:23:16;98097.50;;;2.68;74.83
81997;BME280;71500;50.806;8.774;2024-01-15T13:25:47;98091.45;;;2.65;74.52
81997;BME280;71500;50.806;8.774;2024-01-15T13:28:20;98082.99;;;2.63;75.00
81997;BME280;71500;50.806;8.774;2024-01-15T13:30:52;98084.11;;;2.60;74.46
81997;BME280;71500;50.806;8.774;2024-01-15T13:33:24;98073.16;;;2.57;74.33
81997;BME280;71500;50.806;8.774;2024-01-15T13:35:56;98083.73;;;2.54;73.90